sensor_id;sensor_type;location;lat;lon;timestamp;P1;durP1;ratioP1;P2;durP2;ratioP2
4323;SDS011;2175;51.018;6.994;2022-08-20T00:00:49;12.20;;;5.80;;
4323;SDS011;2175;51.018;6.994;2022-08-20T00:03:26;12.10;;;6.30;;
4323;SDS011;2175;51.018;6.994;2022-08-20T00:05:55;7.57;;;4.63;;
4323;SDS011;2175;51.018;6.994;2022-08-20T00:08:25;11.57;;;6.63;;
4323;SDS011;2175;51.018;6.994;2022-08-20T00:10:52;10.10;;;5.53;;
4323;SDS011;2175;51.018;6.994;2022-08-20T00:13:20;11.70;;;6.73;;
4323;SDS011;2175;51.018;6.994;2022-08-20T00:15:48;10.40;;;6.60;;
4323;SDS011;2175;51.018;6.994;2022-08-20T00:18:14;12.83;;;7.10;;
4323;SDS011;2175;51.018;6.994;2022-08-20T00:20:41;14.83;;;7.90;;
4323;SDS011;2175;51.018;6.994;2022-08-20T00:23:09;12.60;;;7.23;;
4323;SDS011;2175;51.018;6.994;2022-08-20T00:25:35;11.83;;;6.80;;
4323;SDS011;2175;51.018;6.994;2022-08-20T00:28:00;13.47;;;6.13;;
4323;SDS011;2175;51.018;6.994;2022-08-20T00:30:28;9.13;;;6.50;;
4323;SDS011;2175;51.018;6.994;2022-08-20T00:32:57;10.57;;;7.13;;
4323;SDS011;2175;51.018;6.994;2022-08-20T00:35:30;8.60;;;6.83;;
4323;SDS011;2175;51.018;6.994;2022-08-20T00:37:57;17.00;;;9.00;;
4323;SDS011;2175;51.018;6.994;2022-08-20T00:40:26;14.20;;;8.10;;
4323;SDS011;2175;51.018;6.994;2022-08-20T00:42:56;15.10;;;8.73;;
4323;SDS011;2175;51.018;6.994;2022-08-20T00:45:23;10.83;;;8.20;;
4323;SDS011;2175;51.018;6.994;2022-08-20T00:47:53;12.53;;;8.90;;
4323;SDS011;2175;51.018;6.994;2022-08-20T00:50:23;12.47;;;8.27;;
4323;SDS011;2175;51.018;6.994;2022-08-20T00:52:53;13.07;;;8.53;;
4323;SDS011;2175;51.018;6.994;2022-08-20T00:55:20;12.70;;;8.80;;
4323;SDS011;2175;51.018;6.994;2022-08-20T00:57:50;13.23;;;8.30;;
4323;SDS011;2175;51.018;6.994;2022-08-20T01:00:21;14.90;;;9.23;;
4323;SDS011;2175;51.018;6.994;2022-08-20T01:02:49;14.10;;;7.80;;
4323;SDS011;2175;51.018;6.994;2022-08-20T01:05:15;15.00;;;7.67;;
4323;SDS011;2175;51.018;6.994;2022-08-20T01:07:42;17.23;;;9.73;;
4323;SDS011;2175;51.018;6.994;2022-08-20T01:12:34;12.77;;;7.57;;
4323;SDS011;2175;51.018;6.994;2022-08-20T01:15:04;11.37;;;6.83;;
4323;SDS011;2175;51.018;6.994;2022-08-20T01:17:33;14.80;;;7.60;;
4323;SDS011;2175;51.018;6.994;2022-08-20T01:20:08;8.77;;;5.30;;
4323;SDS011;2175;51.018;6.994;2022-08-20T01:28:08;10.57;;;4.90;;
4323;SDS011;2175;51.018;6.994;2022-08-20T01:30:36;6.50;;;4.90;;
4323;SDS011;2175;51.018;6.994;2022-08-20T01:33:03;7.00;;;4.57;;
4323;SDS011;2175;51.018;6.994;2022-08-20T01:35:31;8.73;;;4.20;;
4323;SDS011;2175;51.018;6.994;2022-08-20T01:38:00;11.50;;;5.20;;
4323;SDS011;2175;51.018;6.994;2022-08-20T01:43:38;14.23;;;7.60;;
4323;SDS011;2175;51.018;6.994;2022-08-20T01:46:06;14.53;;;7.23;;
4323;SDS011;2175;51.018;6.994;2022-08-20T01:48:36;8.73;;;5.23;;
4323;SDS011;2175;51.018;6.994;2022-08-20T01:51:11;7.83;;;5.27;;
4323;SDS011;2175;51.018;6.994;2022-08-20T01:53:41;5.40;;;4.10;;
4323;SDS011;2175;51.018;6.994;2022-08-20T01:56:11;7.20;;;4.87;;
4323;SDS011;2175;51.018;6.994;2022-08-20T01:58:42;8.83;;;5.37;;
4323;SDS011;2175;51.018;6.994;2022-08-20T02:03:50;15.23;;;8.60;;
4323;SDS011;2175;51.018;6.994;2022-08-20T02:06:16;10.77;;;6.43;;
4323;SDS011;2175;51.018;6.994;2022-08-20T02:08:42;9.60;;;6.00;;
4323;SDS011;2175;51.018;6.994;2022-08-20T02:11:08;11.30;;;6.23;;
4323;SDS011;2175;51.018;6.994;2022-08-20T02:13:35;12.17;;;7.43;;
4323;SDS011;2175;51.018;6.994;2022-08-20T02:16:01;11.53;;;7.57;;
4323;SDS011;2175;51.018;6.994;2022-08-20T02:18:26;11.60;;;7.37;;
4323;SDS011;2175;51.018;6.994;2022-08-20T02:20:52;8.60;;;5.83;;
4323;SDS011;2175;51.018;6.994;2022-08-20T02:23:17;12.93;;;7.73;;
4323;SDS011;2175;51.018;6.994;2022-08-20T02:25:44;14.17;;;7.03;;
4323;SDS011;2175;51.018;6.994;2022-08-20T02:28:12;11.10;;;6.63;;
4323;SDS011;2175;51.018;6.994;2022-08-20T02:30:43;9.70;;;6.03;;
4323;SDS011;2175;51.018;6.994;2022-08-20T02:33:12;6.87;;;5.13;;
4323;SDS011;2175;51.018;6.994;2022-08-20T02:35:40;6.57;;;5.03;;
4323;SDS011;2175;51.018;6.994;2022-08-20T02:38:07;13.17;;;6.27;;
4323;SDS011;2175;51.018;6.994;2022-08-20T02:40:34;11.47;;;5.80;;
4323;SDS011;2175;51.018;6.994;2022-08-20T02:43:00;7.70;;;5.47;;
4323;SDS011;2175;51.018;6.994;2022-08-20T02:45:28;11.53;;;5.23;;
4323;SDS011;2175;51.018;6.994;2022-08-20T02:47:55;8.33;;;5.30;;
4323;SDS011;2175;51.018;6.994;2022-08-20T02:50:24;11.90;;;6.23;;
4323;SDS011;2175;51.018;6.994;2022-08-20T02:52:50;9.37;;;5.87;;
4323;SDS011;2175;51.018;6.994;2022-08-20T02:55:16;8.47;;;6.30;;
4323;SDS011;2175;51.018;6.994;2022-08-20T02:57:42;12.43;;;6.20;;
4323;SDS011;2175;51.018;6.994;2022-08-20T03:00:12;11.67;;;6.40;;
4323;SDS011;2175;51.018;6.994;2022-08-20T03:02:43;10.27;;;5.80;;
4323;SDS011;2175;51.018;6.994;2022-08-20T03:05:10;6.77;;;5.10;;
4323;SDS011;2175;51.018;6.994;2022-08-20T03:07:54;10.53;;;6.77;;
4323;SDS011;2175;51.018;6.994;2022-08-20T03:10:30;16.30;;;8.87;;
4323;SDS011;2175;51.018;6.994;2022-08-20T03:12:57;10.17;;;5.63;;
4323;SDS011;2175;51.018;6.994;2022-08-20T03:15:26;7.93;;;6.03;;
4323;SDS011;2175;51.018;6.994;2022-08-20T03:17:53;10.47;;;6.33;;
4323;SDS011;2175;51.018;6.994;2022-08-20T03:20:18;10.70;;;5.63;;
4323;SDS011;2175;51.018;6.994;2022-08-20T03:22:45;6.20;;;4.73;;
4323;SDS011;2175;51.018;6.994;2022-08-20T03:25:13;5.50;;;4.17;;
4323;SDS011;2175;51.018;6.994;2022-08-20T03:27:40;7.20;;;4.27;;
4323;SDS011;2175;51.018;6.994;2022-08-20T03:30:07;8.27;;;4.63;;
4323;SDS011;2175;51.018;6.994;2022-08-20T03:32:34;5.83;;;4.10;;
4323;SDS011;2175;51.018;6.994;2022-08-20T03:35:02;5.70;;;3.60;;
4323;SDS011;2175;51.018;6.994;2022-08-20T03:37:30;6.63;;;3.80;;
4323;SDS011;2175;51.018;6.994;2022-08-20T03:39:57;8.50;;;3.97;;
4323;SDS011;2175;51.018;6.994;2022-08-20T03:42:23;8.03;;;3.40;;
4323;SDS011;2175;51.018;6.994;2022-08-20T03:44:49;7.03;;;4.50;;
4323;SDS011;2175;51.018;6.994;2022-08-20T03:47:15;6.63;;;3.70;;
4323;SDS011;2175;51.018;6.994;2022-08-20T03:49:41;6.13;;;4.10;;
4323;SDS011;2175;51.018;6.994;2022-08-20T03:52:07;10.90;;;4.13;;
4323;SDS011;2175;51.018;6.994;2022-08-20T03:54:33;8.17;;;4.33;;
4323;SDS011;2175;51.018;6.994;2022-08-20T03:56:59;6.27;;;3.93;;
4323;SDS011;2175;51.018;6.994;2022-08-20T03:59:27;8.20;;;4.07;;
4323;SDS011;2175;51.018;6.994;2022-08-20T04:01:53;4.73;;;3.03;;
4323;SDS011;2175;51.018;6.994;2022-08-20T04:04:19;4.80;;;3.20;;
4323;SDS011;2175;51.018;6.994;2022-08-20T04:06:45;7.00;;;3.53;;
4323;SDS011;2175;51.018;6.994;2022-08-20T04:09:12;7.00;;;3.70;;
4323;SDS011;2175;51.018;6.994;2022-08-20T04:11:41;5.33;;;3.20;;
4323;SDS011;2175;51.018;6.994;2022-08-20T04:14:07;6.50;;;3.87;;
4323;SDS011;2175;51.018;6.994;2022-08-20T04:16:33;6.10;;;3.80;;
4323;SDS011;2175;51.018;6.994;2022-08-20T04:18:59;7.20;;;3.53;;
4323;SDS011;2175;51.018;6.994;2022-08-20T04:21:27;6.90;;;4.00;;
4323;SDS011;2175;51.018;6.994;2022-08-20T04:23:54;6.70;;;4.40;;
4323;SDS011;2175;51.018;6.994;2022-08-20T04:26:20;9.33;;;4.50;;
4323;SDS011;2175;51.018;6.994;2022-08-20T04:28:46;7.13;;;4.73;;
4323;SDS011;2175;51.018;6.994;2022-08-20T04:31:11;8.63;;;5.40;;
4323;SDS011;2175;51.018;6.994;2022-08-20T04:33:38;6.87;;;5.30;;
4323;SDS011;2175;51.018;6.994;2022-08-20T04:36:06;9.07;;;5.23;;
4323;SDS011;2175;51.018;6.994;2022-08-20T04:38:31;7.27;;;5.43;;
4323;SDS011;2175;51.018;6.994;2022-08-20T04:40:57;6.27;;;4.93;;
4323;SDS011;2175;51.018;6.994;2022-08-20T04:43:31;6.73;;;4.27;;
4323;SDS011;2175;51.018;6.994;2022-08-20T04:46:00;12.33;;;5.63;;
4323;SDS011;2175;51.018;6.994;2022-08-20T04:48:29;9.50;;;6.27;;
4323;SDS011;2175;51.018;6.994;2022-08-20T04:50:56;11.90;;;6.87;;
4323;SDS011;2175;51.018;6.994;2022-08-20T04:53:23;14.37;;;7.27;;
4323;SDS011;2175;51.018;6.994;2022-08-20T04:55:51;12.60;;;6.97;;
4323;SDS011;2175;51.018;6.994;2022-08-20T04:58:21;10.70;;;7.30;;
4323;SDS011;2175;51.018;6.994;2022-08-20T05:00:52;12.33;;;8.67;;
4323;SDS011;2175;51.018;6.994;2022-08-20T05:03:21;14.70;;;7.60;;
4323;SDS011;2175;51.018;6.994;2022-08-20T05:05:47;12.17;;;8.33;;
4323;SDS011;2175;51.018;6.994;2022-08-20T05:08:14;14.97;;;8.50;;
4323;SDS011;2175;51.018;6.994;2022-08-20T05:10:42;12.53;;;8.90;;
4323;SDS011;2175;51.018;6.994;2022-08-20T05:13:09;14.67;;;8.27;;
4323;SDS011;2175;51.018;6.994;2022-08-20T05:15:35;13.33;;;8.50;;
4323;SDS011;2175;51.018;6.994;2022-08-20T05:18:03;10.13;;;8.50;;
4323;SDS011;2175;51.018;6.994;2022-08-20T05:20:30;13.80;;;8.50;;
4323;SDS011;2175;51.018;6.994;2022-08-20T05:22:58;13.47;;;8.53;;
4323;SDS011;2175;51.018;6.994;2022-08-20T05:25:26;16.07;;;10.93;;
4323;SDS011;2175;51.018;6.994;2022-08-20T05:27:59;18.57;;;12.10;;
4323;SDS011;2175;51.018;6.994;2022-08-20T05:30:29;14.07;;;10.30;;
4323;SDS011;2175;51.018;6.994;2022-08-20T05:32:58;12.40;;;10.50;;
4323;SDS011;2175;51.018;6.994;2022-08-20T05:35:24;15.33;;;12.90;;
4323;SDS011;2175;51.018;6.994;2022-08-20T05:37:51;19.50;;;15.80;;
4323;SDS011;2175;51.018;6.994;2022-08-20T05:40:18;19.57;;;15.33;;
4323;SDS011;2175;51.018;6.994;2022-08-20T05:42:46;19.10;;;17.00;;
4323;SDS011;2175;51.018;6.994;2022-08-20T05:45:13;19.00;;;16.60;;
4323;SDS011;2175;51.018;6.994;2022-08-20T05:47:41;24.00;;;20.90;;
4323;SDS011;2175;51.018;6.994;2022-08-20T05:50:09;28.53;;;24.20;;
4323;SDS011;2175;51.018;6.994;2022-08-20T05:52:37;31.90;;;24.37;;
4323;SDS011;2175;51.018;6.994;2022-08-20T05:55:04;28.80;;;24.23;;
4323;SDS011;2175;51.018;6.994;2022-08-20T05:57:33;34.80;;;27.47;;
4323;SDS011;2175;51.018;6.994;2022-08-20T06:00:00;37.10;;;28.77;;
4323;SDS011;2175;51.018;6.994;2022-08-20T06:02:27;33.57;;;27.33;;
4323;SDS011;2175;51.018;6.994;2022-08-20T06:05:11;38.73;;;30.50;;
4323;SDS011;2175;51.018;6.994;2022-08-20T06:07:37;38.10;;;29.93;;
4323;SDS011;2175;51.018;6.994;2022-08-20T06:10:04;36.50;;;28.57;;
4323;SDS011;2175;51.018;6.994;2022-08-20T06:12:31;37.60;;;30.13;;
4323;SDS011;2175;51.018;6.994;2022-08-20T06:14:57;38.60;;;31.80;;
4323;SDS011;2175;51.018;6.994;2022-08-20T06:17:23;42.70;;;32.77;;
4323;SDS011;2175;51.018;6.994;2022-08-20T06:19:48;41.40;;;33.37;;
4323;SDS011;2175;51.018;6.994;2022-08-20T06:22:15;44.20;;;33.80;;
4323;SDS011;2175;51.018;6.994;2022-08-20T06:24:41;40.20;;;33.20;;
4323;SDS011;2175;51.018;6.994;2022-08-20T06:27:07;46.40;;;32.30;;
4323;SDS011;2175;51.018;6.994;2022-08-20T06:29:34;43.77;;;35.43;;
4323;SDS011;2175;51.018;6.994;2022-08-20T06:32:00;39.67;;;32.60;;
4323;SDS011;2175;51.018;6.994;2022-08-20T06:34:26;42.20;;;31.70;;
4323;SDS011;2175;51.018;6.994;2022-08-20T06:36:53;42.20;;;32.67;;
4323;SDS011;2175;51.018;6.994;2022-08-20T06:39:19;39.60;;;32.13;;
4323;SDS011;2175;51.018;6.994;2022-08-20T06:41:45;39.53;;;32.07;;
4323;SDS011;2175;51.018;6.994;2022-08-20T06:44:11;40.63;;;31.63;;
4323;SDS011;2175;51.018;6.994;2022-08-20T06:46:37;36.90;;;30.47;;
4323;SDS011;2175;51.018;6.994;2022-08-20T06:49:04;41.07;;;31.47;;
4323;SDS011;2175;51.018;6.994;2022-08-20T06:51:31;36.77;;;27.53;;
4323;SDS011;2175;51.018;6.994;2022-08-20T06:53:58;35.73;;;27.40;;
4323;SDS011;2175;51.018;6.994;2022-08-20T06:56:24;32.97;;;26.63;;
4323;SDS011;2175;51.018;6.994;2022-08-20T06:58:49;39.30;;;26.47;;
4323;SDS011;2175;51.018;6.994;2022-08-20T07:01:15;30.10;;;25.90;;
4323;SDS011;2175;51.018;6.994;2022-08-20T07:03:46;33.93;;;25.50;;
4323;SDS011;2175;51.018;6.994;2022-08-20T07:06:13;29.23;;;24.40;;
4323;SDS011;2175;51.018;6.994;2022-08-20T07:08:40;36.37;;;27.03;;
4323;SDS011;2175;51.018;6.994;2022-08-20T07:11:07;40.23;;;29.70;;
4323;SDS011;2175;51.018;6.994;2022-08-20T07:13:33;36.90;;;29.60;;
4323;SDS011;2175;51.018;6.994;2022-08-20T07:16:02;36.90;;;28.90;;
4323;SDS011;2175;51.018;6.994;2022-08-20T07:18:29;36.40;;;32.40;;
4323;SDS011;2175;51.018;6.994;2022-08-20T07:20:55;40.60;;;32.47;;
4323;SDS011;2175;51.018;6.994;2022-08-20T07:23:22;40.93;;;35.90;;
4323;SDS011;2175;51.018;6.994;2022-08-20T07:25:49;38.13;;;32.80;;
4323;SDS011;2175;51.018;6.994;2022-08-20T07:28:16;40.07;;;32.37;;
4323;SDS011;2175;51.018;6.994;2022-08-20T07:30:46;38.03;;;30.07;;
4323;SDS011;2175;51.018;6.994;2022-08-20T07:33:30;31.10;;;27.70;;
4323;SDS011;2175;51.018;6.994;2022-08-20T07:35:57;35.50;;;29.40;;
4323;SDS011;2175;51.018;6.994;2022-08-20T07:38:24;41.60;;;29.87;;
4323;SDS011;2175;51.018;6.994;2022-08-20T07:41:03;32.33;;;28.73;;
4323;SDS011;2175;51.018;6.994;2022-08-20T07:43:31;33.90;;;27.03;;
4323;SDS011;2175;51.018;6.994;2022-08-20T07:45:57;31.00;;;27.77;;
4323;SDS011;2175;51.018;6.994;2022-08-20T07:48:25;42.43;;;32.53;;
4323;SDS011;2175;51.018;6.994;2022-08-20T07:50:56;33.60;;;29.97;;
4323;SDS011;2175;51.018;6.994;2022-08-20T07:53:23;33.20;;;26.83;;
4323;SDS011;2175;51.018;6.994;2022-08-20T07:55:49;33.13;;;29.63;;
4323;SDS011;2175;51.018;6.994;2022-08-20T07:58:16;31.30;;;28.00;;
4323;SDS011;2175;51.018;6.994;2022-08-20T08:00:43;33.10;;;26.77;;
4323;SDS011;2175;51.018;6.994;2022-08-20T08:03:09;29.83;;;25.63;;
4323;SDS011;2175;51.018;6.994;2022-08-20T08:05:36;32.00;;;25.10;;
4323;SDS011;2175;51.018;6.994;2022-08-20T08:08:06;28.90;;;23.97;;
4323;SDS011;2175;51.018;6.994;2022-08-20T08:10:35;28.80;;;23.77;;
4323;SDS011;2175;51.018;6.994;2022-08-20T08:13:02;28.20;;;24.30;;
4323;SDS011;2175;51.018;6.994;2022-08-20T08:15:31;30.07;;;26.17;;
4323;SDS011;2175;51.018;6.994;2022-08-20T08:18:05;33.60;;;28.93;;
4323;SDS011;2175;51.018;6.994;2022-08-20T08:20:34;35.90;;;29.07;;
4323;SDS011;2175;51.018;6.994;2022-08-20T08:23:04;33.53;;;29.10;;
4323;SDS011;2175;51.018;6.994;2022-08-20T08:25:31;44.13;;;34.77;;
4323;SDS011;2175;51.018;6.994;2022-08-20T08:27:57;39.67;;;34.10;;
4323;SDS011;2175;51.018;6.994;2022-08-20T08:30:24;39.00;;;32.87;;
4323;SDS011;2175;51.018;6.994;2022-08-20T08:32:52;40.43;;;33.50;;
4323;SDS011;2175;51.018;6.994;2022-08-20T08:35:37;40.83;;;32.80;;
4323;SDS011;2175;51.018;6.994;2022-08-20T08:38:04;52.87;;;35.70;;
4323;SDS011;2175;51.018;6.994;2022-08-20T08:40:30;59.27;;;39.80;;
4323;SDS011;2175;51.018;6.994;2022-08-20T08:42:58;45.13;;;36.73;;
4323;SDS011;2175;51.018;6.994;2022-08-20T08:45:28;44.67;;;38.00;;
4323;SDS011;2175;51.018;6.994;2022-08-20T08:48:06;54.50;;;38.30;;
4323;SDS011;2175;51.018;6.994;2022-08-20T08:50:33;43.40;;;38.37;;
4323;SDS011;2175;51.018;6.994;2022-08-20T08:53:00;57.60;;;40.20;;
4323;SDS011;2175;51.018;6.994;2022-08-20T08:55:29;46.87;;;37.43;;
4323;SDS011;2175;51.018;6.994;2022-08-20T08:57:57;51.40;;;39.10;;
4323;SDS011;2175;51.018;6.994;2022-08-20T09:00:25;56.90;;;46.20;;
4323;SDS011;2175;51.018;6.994;2022-08-20T09:03:08;56.00;;;44.40;;
4323;SDS011;2175;51.018;6.994;2022-08-20T09:05:44;59.07;;;44.93;;
4323;SDS011;2175;51.018;6.994;2022-08-20T09:08:17;59.00;;;41.00;;
4323;SDS011;2175;51.018;6.994;2022-08-20T09:10:48;54.47;;;43.00;;
4323;SDS011;2175;51.018;6.994;2022-08-20T09:13:14;74.90;;;50.77;;
4323;SDS011;2175;51.018;6.994;2022-08-20T09:15:40;70.17;;;49.67;;
4323;SDS011;2175;51.018;6.994;2022-08-20T09:18:06;67.80;;;51.37;;
4323;SDS011;2175;51.018;6.994;2022-08-20T09:20:32;75.07;;;52.37;;
4323;SDS011;2175;51.018;6.994;2022-08-20T09:22:58;70.63;;;51.90;;
4323;SDS011;2175;51.018;6.994;2022-08-20T09:25:23;63.83;;;49.40;;
4323;SDS011;2175;51.018;6.994;2022-08-20T09:27:49;64.90;;;52.03;;
4323;SDS011;2175;51.018;6.994;2022-08-20T09:30:15;63.53;;;49.77;;
4323;SDS011;2175;51.018;6.994;2022-08-20T09:32:42;65.00;;;51.97;;
4323;SDS011;2175;51.018;6.994;2022-08-20T09:35:08;61.97;;;48.90;;
4323;SDS011;2175;51.018;6.994;2022-08-20T09:37:34;67.50;;;52.30;;
4323;SDS011;2175;51.018;6.994;2022-08-20T09:40:00;67.53;;;51.50;;
4323;SDS011;2175;51.018;6.994;2022-08-20T09:42:30;60.23;;;42.57;;
4323;SDS011;2175;51.018;6.994;2022-08-20T09:44:57;52.57;;;40.83;;
4323;SDS011;2175;51.018;6.994;2022-08-20T09:47:24;46.70;;;36.33;;
4323;SDS011;2175;51.018;6.994;2022-08-20T09:49:50;56.73;;;37.43;;
4323;SDS011;2175;51.018;6.994;2022-08-20T09:52:23;48.63;;;35.87;;
4323;SDS011;2175;51.018;6.994;2022-08-20T09:54:53;48.70;;;33.23;;
4323;SDS011;2175;51.018;6.994;2022-08-20T09:57:26;43.00;;;32.90;;
4323;SDS011;2175;51.018;6.994;2022-08-20T09:59:57;49.30;;;32.97;;
4323;SDS011;2175;51.018;6.994;2022-08-20T10:02:24;44.53;;;30.70;;
4323;SDS011;2175;51.018;6.994;2022-08-20T10:04:50;35.67;;;26.83;;
4323;SDS011;2175;51.018;6.994;2022-08-20T10:07:16;31.87;;;26.30;;
4323;SDS011;2175;51.018;6.994;2022-08-20T10:09:42;40.57;;;28.07;;
4323;SDS011;2175;51.018;6.994;2022-08-20T10:12:08;30.53;;;22.10;;
4323;SDS011;2175;51.018;6.994;2022-08-20T10:14:33;32.00;;;19.67;;
4323;SDS011;2175;51.018;6.994;2022-08-20T10:17:00;29.77;;;22.93;;
4323;SDS011;2175;51.018;6.994;2022-08-20T10:19:26;31.97;;;20.50;;
4323;SDS011;2175;51.018;6.994;2022-08-20T10:21:54;27.10;;;21.43;;
4323;SDS011;2175;51.018;6.994;2022-08-20T10:24:20;30.60;;;20.53;;
4323;SDS011;2175;51.018;6.994;2022-08-20T10:26:46;27.00;;;19.33;;
4323;SDS011;2175;51.018;6.994;2022-08-20T10:29:12;27.77;;;18.30;;
4323;SDS011;2175;51.018;6.994;2022-08-20T10:31:38;28.93;;;18.53;;
4323;SDS011;2175;51.018;6.994;2022-08-20T10:34:04;26.83;;;17.87;;
4323;SDS011;2175;51.018;6.994;2022-08-20T10:36:29;21.97;;;17.17;;
4323;SDS011;2175;51.018;6.994;2022-08-20T10:38:55;30.57;;;17.00;;
4323;SDS011;2175;51.018;6.994;2022-08-20T10:41:21;25.70;;;15.37;;
4323;SDS011;2175;51.018;6.994;2022-08-20T10:43:46;28.23;;;15.47;;
4323;SDS011;2175;51.018;6.994;2022-08-20T10:46:12;24.47;;;14.43;;
4323;SDS011;2175;51.018;6.994;2022-08-20T10:48:38;23.53;;;14.53;;
4323;SDS011;2175;51.018;6.994;2022-08-20T10:51:04;22.67;;;13.37;;
4323;SDS011;2175;51.018;6.994;2022-08-20T10:53:30;18.43;;;11.87;;
4323;SDS011;2175;51.018;6.994;2022-08-20T10:55:56;24.00;;;14.17;;
4323;SDS011;2175;51.018;6.994;2022-08-20T10:58:22;25.87;;;15.73;;
4323;SDS011;2175;51.018;6.994;2022-08-20T11:00:49;26.10;;;15.47;;
4323;SDS011;2175;51.018;6.994;2022-08-20T11:03:16;22.53;;;14.40;;
4323;SDS011;2175;51.018;6.994;2022-08-20T11:05:41;29.93;;;15.30;;
4323;SDS011;2175;51.018;6.994;2022-08-20T11:08:07;24.10;;;19.80;;
4323;SDS011;2175;51.018;6.994;2022-08-20T11:10:34;26.87;;;18.20;;
4323;SDS011;2175;51.018;6.994;2022-08-20T11:13:01;24.37;;;16.77;;
4323;SDS011;2175;51.018;6.994;2022-08-20T11:15:28;27.77;;;16.60;;
4323;SDS011;2175;51.018;6.994;2022-08-20T11:17:54;16.43;;;12.70;;
4323;SDS011;2175;51.018;6.994;2022-08-20T11:20:21;17.73;;;13.20;;
4323;SDS011;2175;51.018;6.994;2022-08-20T11:22:49;20.03;;;13.07;;
4323;SDS011;2175;51.018;6.994;2022-08-20T11:25:16;23.40;;;11.60;;
4323;SDS011;2175;51.018;6.994;2022-08-20T11:27:43;20.07;;;9.60;;
4323;SDS011;2175;51.018;6.994;2022-08-20T11:30:13;13.83;;;9.53;;
4323;SDS011;2175;51.018;6.994;2022-08-20T11:32:50;18.00;;;9.57;;
4323;SDS011;2175;51.018;6.994;2022-08-20T11:35:16;18.70;;;10.03;;
4323;SDS011;2175;51.018;6.994;2022-08-20T11:37:43;16.37;;;9.80;;
4323;SDS011;2175;51.018;6.994;2022-08-20T11:40:09;19.30;;;9.50;;
4323;SDS011;2175;51.018;6.994;2022-08-20T11:42:36;17.50;;;9.60;;
4323;SDS011;2175;51.018;6.994;2022-08-20T11:45:02;21.13;;;11.63;;
4323;SDS011;2175;51.018;6.994;2022-08-20T11:47:29;18.60;;;10.70;;
4323;SDS011;2175;51.018;6.994;2022-08-20T11:50:05;17.93;;;8.97;;
4323;SDS011;2175;51.018;6.994;2022-08-20T11:52:33;19.00;;;9.03;;
4323;SDS011;2175;51.018;6.994;2022-08-20T11:54:59;14.00;;;8.67;;
4323;SDS011;2175;51.018;6.994;2022-08-20T11:57:29;15.57;;;9.20;;
4323;SDS011;2175;51.018;6.994;2022-08-20T11:59:56;22.23;;;10.93;;
4323;SDS011;2175;51.018;6.994;2022-08-20T12:02:26;16.47;;;10.53;;
4323;SDS011;2175;51.018;6.994;2022-08-20T12:04:55;20.00;;;10.37;;
4323;SDS011;2175;51.018;6.994;2022-08-20T12:07:22;23.27;;;12.60;;
4323;SDS011;2175;51.018;6.994;2022-08-20T12:09:49;20.70;;;11.57;;
4323;SDS011;2175;51.018;6.994;2022-08-20T12:12:16;20.53;;;10.57;;
4323;SDS011;2175;51.018;6.994;2022-08-20T12:14:43;19.20;;;11.27;;
4323;SDS011;2175;51.018;6.994;2022-08-20T12:17:09;21.27;;;11.90;;
4323;SDS011;2175;51.018;6.994;2022-08-20T12:19:36;22.50;;;13.10;;
4323;SDS011;2175;51.018;6.994;2022-08-20T12:22:06;18.57;;;12.00;;
4323;SDS011;2175;51.018;6.994;2022-08-20T12:24:35;23.57;;;12.00;;
4323;SDS011;2175;51.018;6.994;2022-08-20T12:27:21;22.63;;;12.00;;
4323;SDS011;2175;51.018;6.994;2022-08-20T12:29:49;16.00;;;9.77;;
4323;SDS011;2175;51.018;6.994;2022-08-20T12:32:17;17.73;;;8.13;;
4323;SDS011;2175;51.018;6.994;2022-08-20T12:34:44;12.93;;;7.83;;
4323;SDS011;2175;51.018;6.994;2022-08-20T12:37:14;14.00;;;8.40;;
4323;SDS011;2175;51.018;6.994;2022-08-20T12:39:46;23.30;;;10.83;;
4323;SDS011;2175;51.018;6.994;2022-08-20T12:42:13;19.63;;;11.60;;
4323;SDS011;2175;51.018;6.994;2022-08-20T12:44:40;19.83;;;11.87;;
4323;SDS011;2175;51.018;6.994;2022-08-20T12:47:18;16.27;;;9.60;;
4323;SDS011;2175;51.018;6.994;2022-08-20T12:49:47;15.10;;;9.03;;
4323;SDS011;2175;51.018;6.994;2022-08-20T12:52:15;15.67;;;10.13;;
4323;SDS011;2175;51.018;6.994;2022-08-20T12:54:42;19.50;;;10.50;;
4323;SDS011;2175;51.018;6.994;2022-08-20T12:57:15;14.13;;;9.27;;
4323;SDS011;2175;51.018;6.994;2022-08-20T12:59:47;16.43;;;9.43;;
4323;SDS011;2175;51.018;6.994;2022-08-20T13:02:12;16.90;;;9.70;;
4323;SDS011;2175;51.018;6.994;2022-08-20T13:04:38;13.30;;;9.20;;
4323;SDS011;2175;51.018;6.994;2022-08-20T13:07:04;14.73;;;9.40;;
4323;SDS011;2175;51.018;6.994;2022-08-20T13:09:30;14.10;;;8.87;;
4323;SDS011;2175;51.018;6.994;2022-08-20T13:11:56;19.73;;;10.00;;
4323;SDS011;2175;51.018;6.994;2022-08-20T13:14:22;17.67;;;9.43;;
4323;SDS011;2175;51.018;6.994;2022-08-20T13:16:53;24.77;;;10.43;;
4323;SDS011;2175;51.018;6.994;2022-08-20T13:19:20;20.30;;;9.80;;
4323;SDS011;2175;51.018;6.994;2022-08-20T13:21:46;21.50;;;8.87;;
4323;SDS011;2175;51.018;6.994;2022-08-20T13:24:11;14.47;;;7.50;;
4323;SDS011;2175;51.018;6.994;2022-08-20T13:26:37;12.43;;;7.00;;
4323;SDS011;2175;51.018;6.994;2022-08-20T13:29:02;13.17;;;8.27;;
4323;SDS011;2175;51.018;6.994;2022-08-20T13:31:28;14.77;;;8.50;;
4323;SDS011;2175;51.018;6.994;2022-08-20T13:33:54;25.50;;;7.70;;
4323;SDS011;2175;51.018;6.994;2022-08-20T13:36:19;17.03;;;8.70;;
4323;SDS011;2175;51.018;6.994;2022-08-20T13:38:45;19.73;;;9.00;;
4323;SDS011;2175;51.018;6.994;2022-08-20T13:41:10;14.80;;;7.80;;
4323;SDS011;2175;51.018;6.994;2022-08-20T13:43:36;17.47;;;8.20;;
4323;SDS011;2175;51.018;6.994;2022-08-20T13:46:02;15.33;;;8.07;;
4323;SDS011;2175;51.018;6.994;2022-08-20T13:48:28;18.87;;;7.47;;
4323;SDS011;2175;51.018;6.994;2022-08-20T13:50:54;12.40;;;6.17;;
4323;SDS011;2175;51.018;6.994;2022-08-20T13:53:20;13.87;;;6.37;;
4323;SDS011;2175;51.018;6.994;2022-08-20T13:55:45;15.30;;;7.00;;
4323;SDS011;2175;51.018;6.994;2022-08-20T13:58:11;16.53;;;7.03;;
4323;SDS011;2175;51.018;6.994;2022-08-20T14:00:37;14.70;;;7.63;;
4323;SDS011;2175;51.018;6.994;2022-08-20T14:03:03;15.60;;;6.47;;
4323;SDS011;2175;51.018;6.994;2022-08-20T14:05:30;18.63;;;6.13;;
4323;SDS011;2175;51.018;6.994;2022-08-20T14:08:14;18.07;;;6.27;;
4323;SDS011;2175;51.018;6.994;2022-08-20T14:10:42;10.90;;;5.20;;
4323;SDS011;2175;51.018;6.994;2022-08-20T14:13:09;9.40;;;5.20;;
4323;SDS011;2175;51.018;6.994;2022-08-20T14:15:35;13.57;;;6.00;;
4323;SDS011;2175;51.018;6.994;2022-08-20T14:18:02;11.60;;;5.73;;
4323;SDS011;2175;51.018;6.994;2022-08-20T14:20:29;14.93;;;6.00;;
4323;SDS011;2175;51.018;6.994;2022-08-20T14:22:56;19.07;;;7.67;;
4323;SDS011;2175;51.018;6.994;2022-08-20T14:25:23;13.80;;;6.47;;
4323;SDS011;2175;51.018;6.994;2022-08-20T14:27:52;13.23;;;6.27;;
4323;SDS011;2175;51.018;6.994;2022-08-20T14:30:27;14.47;;;5.87;;
4323;SDS011;2175;51.018;6.994;2022-08-20T14:32:56;12.47;;;5.47;;
4323;SDS011;2175;51.018;6.994;2022-08-20T14:35:33;8.50;;;4.77;;
4323;SDS011;2175;51.018;6.994;2022-08-20T14:37:59;9.20;;;4.27;;
4323;SDS011;2175;51.018;6.994;2022-08-20T14:40:25;11.03;;;4.67;;
4323;SDS011;2175;51.018;6.994;2022-08-20T14:42:52;10.40;;;5.30;;
4323;SDS011;2175;51.018;6.994;2022-08-20T14:45:19;14.07;;;6.33;;
4323;SDS011;2175;51.018;6.994;2022-08-20T14:47:48;12.97;;;5.93;;
4323;SDS011;2175;51.018;6.994;2022-08-20T14:50:20;13.77;;;5.60;;
4323;SDS011;2175;51.018;6.994;2022-08-20T14:52:49;10.50;;;4.80;;
4323;SDS011;2175;51.018;6.994;2022-08-20T14:55:16;13.20;;;5.20;;
4323;SDS011;2175;51.018;6.994;2022-08-20T14:57:44;9.60;;;4.43;;
4323;SDS011;2175;51.018;6.994;2022-08-20T15:00:13;11.20;;;4.70;;
4323;SDS011;2175;51.018;6.994;2022-08-20T15:02:42;17.17;;;5.10;;
4323;SDS011;2175;51.018;6.994;2022-08-20T15:05:08;16.70;;;4.27;;
4323;SDS011;2175;51.018;6.994;2022-08-20T15:07:36;8.50;;;4.53;;
4323;SDS011;2175;51.018;6.994;2022-08-20T15:10:08;11.90;;;4.70;;
4323;SDS011;2175;51.018;6.994;2022-08-20T15:12:47;13.40;;;5.90;;
4323;SDS011;2175;51.018;6.994;2022-08-20T15:15:14;16.30;;;5.37;;